sensor_id;sensor_type;location;lat;lon;timestamp;P1;durP1;ratioP1;P2;durP2;ratioP2
27999;SDS011;15328;50.860;10.562;2023-03-30T00:00:23;5.20;;;2.20;;
27999;SDS011;15328;50.860;10.562;2023-03-30T00:05:23;3.85;;;2.13;;
27999;SDS011;15328;50.860;10.562;2023-03-30T00:10:24;4.55;;;2.20;;
27999;SDS011;15328;50.860;10.562;2023-03-30T00:15:26;4.30;;;2.22;;
27999;SDS011;15328;50.860;10.562;2023-03-30T00:20:26;3.90;;;2.00;;
27999;SDS011;15328;50.860;10.562;2023-03-30T00:25:26;5.37;;;2.30;;
27999;SDS011;15328;50.860;10.562;2023-03-30T00:30:27;5.05;;;2.20;;
27999;SDS011;15328;50.860;10.562;2023-03-30T00:35:27;5.30;;;2.40;;
27999;SDS011;15328;50.860;10.562;2023-03-30T00:40:30;5.93;;;2.10;;
27999;SDS011;15328;50.860;10.562;2023-03-30T00:45:33;4.43;;;1.98;;
27999;SDS011;15328;50.860;10.562;2023-03-30T00:50:39;4.90;;;2.10;;
27999;SDS011;15328;50.860;10.562;2023-03-30T00:55:56;3.05;;;2.00;;
27999;SDS011;15328;50.860;10.562;2023-03-30T01:00:58;4.93;;;2.20;;
27999;SDS011;15328;50.860;10.562;2023-03-30T01:06:02;3.40;;;2.03;;
27999;SDS011;15328;50.860;10.562;2023-03-30T01:11:06;6.85;;;2.17;;
27999;SDS011;15328;50.860;10.562;2023-03-30T01:26:52;4.78;;;2.00;;
27999;SDS011;15328;50.860;10.562;2023-03-30T01:53:27;4.78;;;1.90;;
27999;SDS011;15328;50.860;10.562;2023-03-30T02:03:34;7.63;;;2.13;;
27999;SDS011;15328;50.860;10.562;2023-03-30T02:08:38;5.78;;;2.10;;
27999;SDS011;15328;50.860;10.562;2023-03-30T02:13:40;5.57;;;1.92;;
27999;SDS011;15328;50.860;10.562;2023-03-30T02:18:42;6.60;;;1.88;;
27999;SDS011;15328;50.860;10.562;2023-03-30T02:23:43;6.30;;;1.93;;
27999;SDS011;15328;50.860;10.562;2023-03-30T02:28:45;4.75;;;1.60;;
27999;SDS011;15328;50.860;10.562;2023-03-30T02:39:00;5.22;;;1.90;;
27999;SDS011;15328;50.860;10.562;2023-03-30T02:49:44;5.03;;;1.92;;
27999;SDS011;15328;50.860;10.562;2023-03-30T02:54:56;7.10;;;2.50;;
27999;SDS011;15328;50.860;10.562;2023-03-30T03:05:08;5.72;;;2.20;;
27999;SDS011;15328;50.860;10.562;2023-03-30T03:10:11;5.03;;;2.10;;
27999;SDS011;15328;50.860;10.562;2023-03-30T03:15:12;9.70;;;2.28;;
27999;SDS011;15328;50.860;10.562;2023-03-30T03:20:13;6.32;;;2.75;;
27999;SDS011;15328;50.860;10.562;2023-03-30T03:25:13;6.43;;;2.22;;
27999;SDS011;15328;50.860;10.562;2023-03-30T03:30:14;5.65;;;2.28;;
27999;SDS011;15328;50.860;10.562;2023-03-30T03:35:14;4.82;;;1.98;;
27999;SDS011;15328;50.860;10.562;2023-03-30T03:40:15;10.68;;;2.10;;
27999;SDS011;15328;50.860;10.562;2023-03-30T03:45:15;6.93;;;2.10;;
27999;SDS011;15328;50.860;10.562;2023-03-30T03:50:16;6.18;;;2.10;;
27999;SDS011;15328;50.860;10.562;2023-03-30T03:55:16;7.38;;;2.20;;
27999;SDS011;15328;50.860;10.562;2023-03-30T04:00:17;9.05;;;2.30;;
27999;SDS011;15328;50.860;10.562;2023-03-30T04:05:17;5.68;;;1.90;;
27999;SDS011;15328;50.860;10.562;2023-03-30T04:10:18;6.50;;;2.30;;
27999;SDS011;15328;50.860;10.562;2023-03-30T04:15:19;6.30;;;2.35;;
27999;SDS011;15328;50.860;10.562;2023-03-30T04:20:20;6.60;;;2.50;;
27999;SDS011;15328;50.860;10.562;2023-03-30T04:25:23;9.23;;;2.33;;
27999;SDS011;15328;50.860;10.562;2023-03-30T04:30:27;5.60;;;2.20;;
27999;SDS011;15328;50.860;10.562;2023-03-30T04:35:30;8.57;;;2.92;;
27999;SDS011;15328;50.860;10.562;2023-03-30T04:40:31;6.57;;;2.35;;
27999;SDS011;15328;50.860;10.562;2023-03-30T04:45:32;9.27;;;2.72;;
27999;SDS011;15328;50.860;10.562;2023-03-30T04:50:33;10.93;;;2.60;;
27999;SDS011;15328;50.860;10.562;2023-03-30T04:55:33;7.03;;;2.50;;
27999;SDS011;15328;50.860;10.562;2023-03-30T05:00:33;5.07;;;2.43;;
27999;SDS011;15328;50.860;10.562;2023-03-30T05:05:34;7.70;;;2.50;;
27999;SDS011;15328;50.860;10.562;2023-03-30T05:10:35;6.03;;;2.25;;
27999;SDS011;15328;50.860;10.562;2023-03-30T05:15:35;7.93;;;2.53;;
27999;SDS011;15328;50.860;10.562;2023-03-30T05:20:36;6.05;;;2.63;;
27999;SDS011;15328;50.860;10.562;2023-03-30T05:25:36;6.78;;;2.50;;
27999;SDS011;15328;50.860;10.562;2023-03-30T05:30:37;6.65;;;2.65;;
27999;SDS011;15328;50.860;10.562;2023-03-30T05:35:37;8.85;;;2.78;;
27999;SDS011;15328;50.860;10.562;2023-03-30T05:40:38;6.00;;;2.60;;
27999;SDS011;15328;50.860;10.562;2023-03-30T05:45:38;6.00;;;2.80;;
27999;SDS011;15328;50.860;10.562;2023-03-30T05:50:38;4.60;;;2.53;;
27999;SDS011;15328;50.860;10.562;2023-03-30T05:55:41;7.03;;;3.05;;
27999;SDS011;15328;50.860;10.562;2023-03-30T06:00:48;7.68;;;2.78;;
27999;SDS011;15328;50.860;10.562;2023-03-30T06:05:48;6.50;;;2.80;;
27999;SDS011;15328;50.860;10.562;2023-03-30T06:10:52;7.40;;;2.90;;
27999;SDS011;15328;50.860;10.562;2023-03-30T06:15:54;6.47;;;2.63;;
27999;SDS011;15328;50.860;10.562;2023-03-30T06:20:55;6.07;;;2.60;;
27999;SDS011;15328;50.860;10.562;2023-03-30T06:25:56;6.40;;;2.25;;
27999;SDS011;15328;50.860;10.562;2023-03-30T06:30:58;7.82;;;2.63;;
27999;SDS011;15328;50.860;10.562;2023-03-30T06:36:00;8.65;;;2.33;;
27999;SDS011;15328;50.860;10.562;2023-03-30T06:41:04;5.60;;;2.53;;
27999;SDS011;15328;50.860;10.562;2023-03-30T06:46:07;13.68;;;2.90;;
27999;SDS011;15328;50.860;10.562;2023-03-30T06:51:08;7.35;;;2.60;;
27999;SDS011;15328;50.860;10.562;2023-03-30T06:56:08;6.90;;;2.60;;
27999;SDS011;15328;50.860;10.562;2023-03-30T07:01:12;6.07;;;2.40;;
27999;SDS011;15328;50.860;10.562;2023-03-30T07:06:13;10.02;;;3.20;;
27999;SDS011;15328;50.860;10.562;2023-03-30T07:11:14;6.47;;;2.30;;
27999;SDS011;15328;50.860;10.562;2023-03-30T07:16:15;9.97;;;2.67;;
27999;SDS011;15328;50.860;10.562;2023-03-30T07:21:15;8.75;;;2.75;;
27999;SDS011;15328;50.860;10.562;2023-03-30T07:26:16;7.60;;;2.90;;
27999;SDS011;15328;50.860;10.562;2023-03-30T07:31:16;13.10;;;3.95;;
27999;SDS011;15328;50.860;10.562;2023-03-30T07:36:18;10.23;;;3.97;;
27999;SDS011;15328;50.860;10.562;2023-03-30T07:41:19;10.15;;;3.20;;
27999;SDS011;15328;50.860;10.562;2023-03-30T07:46:20;8.40;;;2.90;;
27999;SDS011;15328;50.860;10.562;2023-03-30T07:51:20;12.10;;;2.92;;
27999;SDS011;15328;50.860;10.562;2023-03-30T07:56:21;11.70;;;3.03;;
27999;SDS011;15328;50.860;10.562;2023-03-30T08:01:21;10.98;;;2.95;;
27999;SDS011;15328;50.860;10.562;2023-03-30T08:06:21;9.43;;;3.05;;
27999;SDS011;15328;50.860;10.562;2023-03-30T08:11:22;9.98;;;2.70;;
27999;SDS011;15328;50.860;10.562;2023-03-30T08:16:22;7.32;;;3.28;;
27999;SDS011;15328;50.860;10.562;2023-03-30T08:21:23;9.43;;;2.90;;
27999;SDS011;15328;50.860;10.562;2023-03-30T08:26:25;10.45;;;3.10;;
27999;SDS011;15328;50.860;10.562;2023-03-30T08:31:25;10.95;;;3.53;;
27999;SDS011;15328;50.860;10.562;2023-03-30T08:36:26;9.48;;;3.75;;
27999;SDS011;15328;50.860;10.562;2023-03-30T08:46:27;7.65;;;2.70;;
27999;SDS011;15328;50.860;10.562;2023-03-30T08:51:30;6.45;;;2.92;;
27999;SDS011;15328;50.860;10.562;2023-03-30T08:56:33;10.43;;;3.28;;
27999;SDS011;15328;50.860;10.562;2023-03-30T09:01:43;5.28;;;2.55;;
27999;SDS011;15328;50.860;10.562;2023-03-30T09:06:50;8.55;;;3.92;;
27999;SDS011;15328;50.860;10.562;2023-03-30T09:11:54;8.13;;;2.50;;
27999;SDS011;15328;50.860;10.562;2023-03-30T09:17:06;4.95;;;2.50;;
27999;SDS011;15328;50.860;10.562;2023-03-30T09:22:12;7.13;;;2.55;;
27999;SDS011;15328;50.860;10.562;2023-03-30T09:27:18;7.22;;;2.42;;
27999;SDS011;15328;50.860;10.562;2023-03-30T09:32:30;7.65;;;2.40;;
27999;SDS011;15328;50.860;10.562;2023-03-30T09:37:40;5.50;;;2.25;;
27999;SDS011;15328;50.860;10.562;2023-03-30T09:42:46;6.30;;;2.13;;
27999;SDS011;15328;50.860;10.562;2023-03-30T09:47:57;5.95;;;2.22;;
27999;SDS011;15328;50.860;10.562;2023-03-30T09:58:27;7.47;;;2.80;;
27999;SDS011;15328;50.860;10.562;2023-03-30T10:03:31;6.07;;;2.38;;
27999;SDS011;15328;50.860;10.562;2023-03-30T10:08:34;6.38;;;2.13;;
27999;SDS011;15328;50.860;10.562;2023-03-30T10:13:41;8.45;;;2.72;;
27999;SDS011;15328;50.860;10.562;2023-03-30T10:18:43;7.32;;;2.33;;
27999;SDS011;15328;50.860;10.562;2023-03-30T10:23:45;7.60;;;2.40;;
27999;SDS011;15328;50.860;10.562;2023-03-30T10:29:04;10.00;;;2.80;;
27999;SDS011;15328;50.860;10.562;2023-03-30T10:34:15;6.10;;;2.75;;
27999;SDS011;15328;50.860;10.562;2023-03-30T10:39:28;5.38;;;2.40;;
27999;SDS011;15328;50.860;10.562;2023-03-30T10:44:35;5.55;;;2.33;;
27999;SDS011;15328;50.860;10.562;2023-03-30T10:55:05;4.15;;;2.10;;
27999;SDS011;15328;50.860;10.562;2023-03-30T11:05:43;4.87;;;2.10;;
27999;SDS011;15328;50.860;10.562;2023-03-30T11:10:49;9.88;;;2.67;;
27999;SDS011;15328;50.860;10.562;2023-03-30T11:26:07;5.50;;;2.40;;
27999;SDS011;15328;50.860;10.562;2023-03-30T11:36:20;5.15;;;2.05;;
27999;SDS011;15328;50.860;10.562;2023-03-30T11:41:41;9.18;;;4.30;;
27999;SDS011;15328;50.860;10.562;2023-03-30T11:47:06;7.38;;;2.42;;
27999;SDS011;15328;50.860;10.562;2023-03-30T12:02:52;7.88;;;1.95;;
27999;SDS011;15328;50.860;10.562;2023-03-30T12:12:58;6.00;;;1.60;;
27999;SDS011;15328;50.860;10.562;2023-03-30T12:18:08;7.82;;;2.15;;
27999;SDS011;15328;50.860;10.562;2023-03-30T12:28:16;4.67;;;1.50;;
27999;SDS011;15328;50.860;10.562;2023-03-30T12:33:19;4.30;;;1.60;;
27999;SDS011;15328;50.860;10.562;2023-03-30T12:38:34;6.50;;;1.80;;
27999;SDS011;15328;50.860;10.562;2023-03-30T13:05:28;1.08;;;0.50;;
27999;SDS011;15328;50.860;10.562;2023-03-30T13:15:40;1.83;;;0.40;;
27999;SDS011;15328;50.860;10.562;2023-03-30T13:30:48;1.10;;;0.40;;
27999;SDS011;15328;50.860;10.562;2023-03-30T13:51:40;2.33;;;0.60;;
27999;SDS011;15328;50.860;10.562;2023-03-30T13:56:43;1.13;;;0.40;;
27999;SDS011;15328;50.860;10.562;2023-03-30T14:01:57;4.63;;;2.08;;
27999;SDS011;15328;50.860;10.562;2023-03-30T14:07:16;4.70;;;2.63;;
27999;SDS011;15328;50.860;10.562;2023-03-30T14:12:18;2.15;;;0.95;;
27999;SDS011;15328;50.860;10.562;2023-03-30T14:17:19;1.77;;;0.80;;
27999;SDS011;15328;50.860;10.562;2023-03-30T14:22:23;4.75;;;0.80;;
27999;SDS011;15328;50.860;10.562;2023-03-30T14:27:31;1.60;;;0.57;;
27999;SDS011;15328;50.860;10.562;2023-03-30T14:32:34;3.70;;;1.00;;
27999;SDS011;15328;50.860;10.562;2023-03-30T14:37:35;4.28;;;1.20;;
27999;SDS011;15328;50.860;10.562;2023-03-30T14:42:39;3.42;;;1.50;;
27999;SDS011;15328;50.860;10.562;2023-03-30T14:47:39;2.10;;;0.90;;
27999;SDS011;15328;50.860;10.562;2023-03-30T14:52:41;1.98;;;0.82;;
27999;SDS011;15328;50.860;10.562;2023-03-30T14:57:46;1.75;;;0.60;;
27999;SDS011;15328;50.860;10.562;2023-03-30T15:02:52;0.90;;;0.40;;
27999;SDS011;15328;50.860;10.562;2023-03-30T15:07:58;1.83;;;0.60;;
27999;SDS011;15328;50.860;10.562;2023-03-30T15:13:01;1.58;;;0.50;;
27999;SDS011;15328;50.860;10.562;2023-03-30T15:18:03;2.63;;;0.47;;
27999;SDS011;15328;50.860;10.562;2023-03-30T15:23:04;3.28;;;0.63;;
27999;SDS011;15328;50.860;10.562;2023-03-30T15:28:12;1.52;;;0.50;;
27999;SDS011;15328;50.860;10.562;2023-03-30T15:33:25;2.58;;;0.50;;
27999;SDS011;15328;50.860;10.562;2023-03-30T15:38:33;1.85;;;0.55;;
27999;SDS011;15328;50.860;10.562;2023-03-30T15:48:52;1.85;;;0.65;;
27999;SDS011;15328;50.860;10.562;2023-03-30T15:59:27;2.47;;;0.50;;
27999;SDS011;15328;50.860;10.562;2023-03-30T16:04:30;2.45;;;0.82;;
27999;SDS011;15328;50.860;10.562;2023-03-30T16:09:34;3.20;;;0.60;;
27999;SDS011;15328;50.860;10.562;2023-03-30T16:14:35;3.17;;;1.80;;
27999;SDS011;15328;50.860;10.562;2023-03-30T16:19:36;1.98;;;0.70;;
27999;SDS011;15328;50.860;10.562;2023-03-30T16:24:37;2.13;;;0.50;;
27999;SDS011;15328;50.860;10.562;2023-03-30T16:29:38;2.55;;;0.50;;
27999;SDS011;15328;50.860;10.562;2023-03-30T16:34:38;1.27;;;0.50;;
27999;SDS011;15328;50.860;10.562;2023-03-30T16:39:40;1.98;;;0.60;;
27999;SDS011;15328;50.860;10.562;2023-03-30T16:44:41;2.03;;;0.60;;
27999;SDS011;15328;50.860;10.562;2023-03-30T16:49:41;2.07;;;0.80;;
27999;SDS011;15328;50.860;10.562;2023-03-30T16:54:42;2.50;;;0.70;;
27999;SDS011;15328;50.860;10.562;2023-03-30T16:59:42;3.90;;;1.25;;
27999;SDS011;15328;50.860;10.562;2023-03-30T17:04:42;2.70;;;0.90;;
27999;SDS011;15328;50.860;10.562;2023-03-30T17:09:44;3.17;;;1.00;;
27999;SDS011;15328;50.860;10.562;2023-03-30T17:14:45;2.33;;;0.90;;
27999;SDS011;15328;50.860;10.562;2023-03-30T17:19:45;2.50;;;0.53;;
27999;SDS011;15328;50.860;10.562;2023-03-30T17:24:46;2.27;;;0.70;;
27999;SDS011;15328;50.860;10.562;2023-03-30T17:29:46;1.10;;;0.50;;
27999;SDS011;15328;50.860;10.562;2023-03-30T17:34:46;2.40;;;0.65;;
27999;SDS011;15328;50.860;10.562;2023-03-30T17:39:46;0.93;;;0.35;;
27999;SDS011;15328;50.860;10.562;2023-03-30T17:44:47;3.63;;;0.67;;
27999;SDS011;15328;50.860;10.562;2023-03-30T17:49:47;2.63;;;0.50;;
27999;SDS011;15328;50.860;10.562;2023-03-30T17:54:47;1.83;;;0.60;;
27999;SDS011;15328;50.860;10.562;2023-03-30T17:59:48;1.77;;;0.63;;
27999;SDS011;15328;50.860;10.562;2023-03-30T18:04:48;2.75;;;0.60;;
27999;SDS011;15328;50.860;10.562;2023-03-30T18:09:49;2.15;;;0.60;;
27999;SDS011;15328;50.860;10.562;2023-03-30T18:14:50;1.02;;;0.40;;
27999;SDS011;15328;50.860;10.562;2023-03-30T18:19:50;5.77;;;1.87;;
27999;SDS011;15328;50.860;10.562;2023-03-30T18:24:51;2.08;;;0.50;;
27999;SDS011;15328;50.860;10.562;2023-03-30T18:29:51;3.10;;;1.30;;
27999;SDS011;15328;50.860;10.562;2023-03-30T18:34:52;10.25;;;5.13;;
27999;SDS011;15328;50.860;10.562;2023-03-30T18:39:52;1.73;;;1.00;;
27999;SDS011;15328;50.860;10.562;2023-03-30T18:44:53;5.63;;;0.95;;
27999;SDS011;15328;50.860;10.562;2023-03-30T18:49:53;1.47;;;0.57;;
27999;SDS011;15328;50.860;10.562;2023-03-30T18:54:53;3.87;;;0.63;;
27999;SDS011;15328;50.860;10.562;2023-03-30T18:59:54;1.58;;;0.60;;
27999;SDS011;15328;50.860;10.562;2023-03-30T19:04:55;3.92;;;0.60;;
27999;SDS011;15328;50.860;10.562;2023-03-30T19:09:56;1.55;;;0.60;;
27999;SDS011;15328;50.860;10.562;2023-03-30T19:14:56;1.40;;;0.50;;
27999;SDS011;15328;50.860;10.562;2023-03-30T19:19:57;2.33;;;0.70;;
27999;SDS011;15328;50.860;10.562;2023-03-30T19:24:57;2.87;;;0.80;;
27999;SDS011;15328;50.860;10.562;2023-03-30T19:29:57;2.97;;;0.80;;
27999;SDS011;15328;50.860;10.562;2023-03-30T19:34:58;2.47;;;0.73;;
27999;SDS011;15328;50.860;10.562;2023-03-30T19:39:58;2.03;;;0.65;;
27999;SDS011;15328;50.860;10.562;2023-03-30T19:44:59;2.07;;;0.67;;
27999;SDS011;15328;50.860;10.562;2023-03-30T19:50:01;1.77;;;0.52;;
27999;SDS011;15328;50.860;10.562;2023-03-30T19:55:04;2.42;;;0.82;;
27999;SDS011;15328;50.860;10.562;2023-03-30T20:00:05;3.85;;;1.10;;
27999;SDS011;15328;50.860;10.562;2023-03-30T20:05:11;4.95;;;1.33;;
27999;SDS011;15328;50.860;10.562;2023-03-30T20:10:13;6.00;;;1.00;;
27999;SDS011;15328;50.860;10.562;2023-03-30T20:15:16;4.70;;;1.30;;
27999;SDS011;15328;50.860;10.562;2023-03-30T20:20:18;4.72;;;0.88;;
27999;SDS011;15328;50.860;10.562;2023-03-30T20:25:24;5.35;;;1.10;;
27999;SDS011;15328;50.860;10.562;2023-03-30T20:30:24;2.47;;;0.90;;
27999;SDS011;15328;50.860;10.562;2023-03-30T20:35:24;3.33;;;1.07;;
27999;SDS011;15328;50.860;10.562;2023-03-30T20:40:25;3.85;;;1.10;;
27999;SDS011;15328;50.860;10.562;2023-03-30T20:45:26;2.53;;;0.95;;
27999;SDS011;15328;50.860;10.562;2023-03-30T20:50:27;3.53;;;0.75;;
27999;SDS011;15328;50.860;10.562;2023-03-30T20:55:28;6.03;;;1.20;;
27999;SDS011;15328;50.860;10.562;2023-03-30T21:00:28;3.87;;;0.87;;
27999;SDS011;15328;50.860;10.562;2023-03-30T21:05:28;4.40;;;1.03;;
27999;SDS011;15328;50.860;10.562;2023-03-30T21:10:29;3.15;;;1.30;;
27999;SDS011;15328;50.860;10.562;2023-03-30T21:15:32;3.00;;;0.90;;
27999;SDS011;15328;50.860;10.562;2023-03-30T21:20:32;3.97;;;1.15;;
27999;SDS011;15328;50.860;10.562;2023-03-30T21:25:33;4.90;;;0.97;;
27999;SDS011;15328;50.860;10.562;2023-03-30T21:30:33;6.07;;;1.00;;
27999;SDS011;15328;50.860;10.562;2023-03-30T21:35:34;3.78;;;1.00;;
27999;SDS011;15328;50.860;10.562;2023-03-30T21:40:35;3.50;;;0.90;;
27999;SDS011;15328;50.860;10.562;2023-03-30T21:45:35;7.38;;;1.10;;
27999;SDS011;15328;50.860;10.562;2023-03-30T21:50:35;5.13;;;1.33;;
27999;SDS011;15328;50.860;10.562;2023-03-30T21:55:36;7.55;;;1.20;;
27999;SDS011;15328;50.860;10.562;2023-03-30T22:00:36;4.00;;;0.80;;
27999;SDS011;15328;50.860;10.562;2023-03-30T22:05:37;5.57;;;1.17;;
27999;SDS011;15328;50.860;10.562;2023-03-30T22:10:38;4.85;;;1.13;;
27999;SDS011;15328;50.860;10.562;2023-03-30T22:15:39;7.03;;;1.35;;
27999;SDS011;15328;50.860;10.562;2023-03-30T22:20:40;3.17;;;0.80;;
27999;SDS011;15328;50.860;10.562;2023-03-30T22:25:40;4.35;;;0.93;;
27999;SDS011;15328;50.860;10.562;2023-03-30T22:30:41;5.18;;;0.93;;
27999;SDS011;15328;50.860;10.562;2023-03-30T22:35:43;6.07;;;1.13;;
27999;SDS011;15328;50.860;10.562;2023-03-30T22:40:45;5.07;;;0.80;;
27999;SDS011;15328;50.860;10.562;2023-03-30T22:45:45;3.60;;;0.90;;
27999;SDS011;15328;50.860;10.562;2023-03-30T22:50:45;3.83;;;0.83;;
27999;SDS011;15328;50.860;10.562;2023-03-30T22:55:46;4.75;;;0.90;;
27999;SDS011;15328;50.860;10.562;2023-03-30T23:00:46;6.28;;;1.33;;
27999;SDS011;15328;50.860;10.562;2023-03-30T23:05:50;2.77;;;0.90;;
27999;SDS011;15328;50.860;10.562;2023-03-30T23:10:50;3.70;;;1.00;;
27999;SDS011;15328;50.860;10.562;2023-03-30T23:15:52;6.07;;;1.20;;
27999;SDS011;15328;50.860;10.562;2023-03-30T23:20:55;4.20;;;1.05;;
27999;SDS011;15328;50.860;10.562;2023-03-30T23:25:56;4.05;;;0.90;;
27999;SDS011;15328;50.860;10.562;2023-03-30T23:31:08;2.65;;;0.95;;
27999;SDS011;15328;50.860;10.562;2023-03-30T23:36:10;4.90;;;1.38;;
27999;SDS011;15328;50.860;10.562;2023-03-30T23:41:16;3.92;;;1.00;;
27999;SDS011;15328;50.860;10.562;2023-03-30T23:46:18;5.57;;;1.08;;
27999;SDS011;15328;50.860;10.562;2023-03-30T23:51:19;4.13;;;0.93;;
27999;SDS011;15328;50.860;10.562;2023-03-30T23:56:20;3.85;;;0.88;;
